createdAt,value
2023-04-21T00:01:19.754Z,8.21
2023-04-21T00:03:48.168Z,8.15
2023-04-21T00:06:15.481Z,8.08
2023-04-21T00:08:41.993Z,8.09
2023-04-21T00:11:08.486Z,8.03
2023-04-21T00:13:39.017Z,8.08
2023-04-21T00:16:06.045Z,8.01
2023-04-21T00:18:32.546Z,7.97
2023-04-21T00:20:58.960Z,7.99
2023-04-21T00:23:25.663Z,7.93
2023-04-21T00:25:52.696Z,7.91
2023-04-21T00:28:19.395Z,7.87
2023-04-21T00:30:46.542Z,7.85
2023-04-21T00:33:13.070Z,7.79
2023-04-21T00:35:39.715Z,7.76
2023-04-21T00:38:06.353Z,7.69
2023-04-21T00:40:32.847Z,7.69
2023-04-21T00:42:59.497Z,7.62
2023-04-21T00:45:26.185Z,7.62
2023-04-21T00:47:52.990Z,7.58
2023-04-21T00:50:19.579Z,7.55
2023-04-21T00:52:47.305Z,7.48
2023-04-21T00:55:14.540Z,7.43
2023-04-21T00:57:41.399Z,7.43
2023-04-21T01:00:09.146Z,7.36
2023-04-21T01:02:36.615Z,7.31
2023-04-21T01:05:09.197Z,7.32
2023-04-21T01:07:36.430Z,7.27
2023-04-21T01:10:03.767Z,7.26
2023-04-21T01:12:30.348Z,7.28
2023-04-21T01:14:57.059Z,7.24
2023-04-21T01:17:23.692Z,7.26
2023-04-21T01:19:51.320Z,7.21
2023-04-21T01:22:18.580Z,7.21
2023-04-21T01:24:47.314Z,7.18
2023-04-21T01:27:15.275Z,7.12
2023-04-21T01:29:42.923Z,7.09
2023-04-21T01:32:12.240Z,7.05
2023-04-21T01:34:39.810Z,7.07
2023-04-21T01:37:10.357Z,7.04
2023-04-21T01:39:40.559Z,6.97
2023-04-21T01:42:07.380Z,6.92
2023-04-21T01:44:33.946Z,6.88
2023-04-21T01:47:00.889Z,6.91
2023-04-21T01:49:27.486Z,6.92
2023-04-21T01:51:55.405Z,6.86
2023-04-21T01:54:21.985Z,6.87
2023-04-21T01:56:48.535Z,6.83
2023-04-21T01:59:15.162Z,6.89
2023-04-21T02:01:41.749Z,6.88
2023-04-21T02:04:08.539Z,6.87
2023-04-21T02:06:37.850Z,6.81
2023-04-21T02:09:04.540Z,6.84
2023-04-21T02:11:31.233Z,6.82
2023-04-21T02:13:57.883Z,6.87
2023-04-21T02:16:28.218Z,6.84
2023-04-21T02:18:57.546Z,6.84
2023-04-21T02:21:24.776Z,6.83
2023-04-21T02:23:52.282Z,6.75
2023-04-21T02:26:19.171Z,6.79
2023-04-21T02:28:45.957Z,6.72
2023-04-21T02:31:12.625Z,6.68
2023-04-21T02:33:39.634Z,6.62
2023-04-21T02:36:06.266Z,6.52
2023-04-21T02:38:32.978Z,6.54
2023-04-21T02:40:59.595Z,6.57
2023-04-21T02:43:26.803Z,6.53
2023-04-21T02:45:53.434Z,6.49
2023-04-21T02:48:23.254Z,6.49
2023-04-21T02:50:50.841Z,6.49
2023-04-21T02:53:17.357Z,6.48
2023-04-21T02:55:45.244Z,6.54
2023-04-21T02:58:12.137Z,6.52
2023-04-21T03:00:38.817Z,6.54
2023-04-21T03:03:05.828Z,6.52
2023-04-21T03:05:32.458Z,6.60
2023-04-21T03:07:59.027Z,6.61
2023-04-21T03:10:25.716Z,6.56
2023-04-21T03:12:52.298Z,6.60
2023-04-21T03:15:20.231Z,6.55
2023-04-21T03:17:46.742Z,6.59
2023-04-21T03:20:13.465Z,6.57
2023-04-21T03:22:40.453Z,6.57
2023-04-21T03:25:07.841Z,6.59
2023-04-21T03:27:34.798Z,6.63
2023-04-21T03:30:01.428Z,6.64
2023-04-21T03:32:28.185Z,6.67
2023-04-21T03:34:54.842Z,6.69
2023-04-21T03:37:21.565Z,6.69
2023-04-21T03:39:48.713Z,6.72
2023-04-21T03:42:15.397Z,6.72
2023-04-21T03:44:41.888Z,6.72
2023-04-21T03:47:08.416Z,6.70
2023-04-21T03:49:35.058Z,6.70
2023-04-21T03:52:02.013Z,6.74
2023-04-21T03:54:28.579Z,6.76
2023-04-21T03:56:55.107Z,6.81
2023-04-21T03:59:21.882Z,6.78
2023-04-21T04:01:48.511Z,6.81
2023-04-21T04:04:16.001Z,6.81
2023-04-21T04:06:42.548Z,6.81
2023-04-21T04:09:09.255Z,6.77
2023-04-21T04:11:36.506Z,6.83
2023-04-21T04:14:03.082Z,6.75
2023-04-21T04:16:30.212Z,6.72
2023-04-21T04:18:57.063Z,6.71
2023-04-21T04:21:23.680Z,6.71
2023-04-21T04:23:52.105Z,6.62
2023-04-21T04:26:19.404Z,6.58
2023-04-21T04:28:46.432Z,6.63
2023-04-21T04:31:13.989Z,6.60
2023-04-21T04:33:43.803Z,6.52
2023-04-21T04:36:12.178Z,6.53
2023-04-21T04:38:38.798Z,6.59
2023-04-21T04:41:06.521Z,6.34
2023-04-21T04:43:41.741Z,6.54
2023-04-21T04:46:09.527Z,6.59
2023-04-21T04:48:36.092Z,6.57
2023-04-21T04:51:03.793Z,6.53
2023-04-21T04:53:30.653Z,6.53
2023-04-21T04:55:58.850Z,6.59
2023-04-21T04:58:26.102Z,6.57
2023-04-21T05:00:52.726Z,6.54
2023-04-21T05:03:19.495Z,6.57
2023-04-21T05:05:46.488Z,6.54
2023-04-21T05:08:14.132Z,6.50
2023-04-21T05:10:41.674Z,6.59
2023-04-21T05:13:08.307Z,6.59
2023-04-21T05:15:34.986Z,6.60
2023-04-21T05:18:01.734Z,6.68
2023-04-21T05:20:28.307Z,6.72
2023-04-21T05:22:55.080Z,6.67
2023-04-21T05:25:21.641Z,6.69
2023-04-21T05:27:48.605Z,6.70
2023-04-21T05:30:15.343Z,6.84
2023-04-21T05:32:41.880Z,6.78
2023-04-21T05:35:10.812Z,6.87
2023-04-21T05:37:37.582Z,6.91
2023-04-21T05:40:04.190Z,6.87
2023-04-21T05:42:31.377Z,6.99
2023-04-21T05:44:58.340Z,6.99
2023-04-21T05:47:25.081Z,7.08
2023-04-21T05:49:53.728Z,6.94
2023-04-21T05:52:21.840Z,7.03
2023-04-21T05:54:48.533Z,6.92
2023-04-21T05:57:16.754Z,6.98
2023-04-21T05:59:43.902Z,7.06
2023-04-21T06:02:11.095Z,7.12
2023-04-21T06:04:37.951Z,7.24
2023-04-21T06:07:05.718Z,7.27
2023-04-21T06:09:32.398Z,7.35
2023-04-21T06:11:59.238Z,7.34
2023-04-21T06:14:26.486Z,7.39
2023-04-21T06:16:53.132Z,7.41
2023-04-21T06:19:19.805Z,7.89
2023-04-21T06:21:46.930Z,7.72
2023-04-21T06:24:13.527Z,7.97
2023-04-21T06:26:40.254Z,8.35
2023-04-21T06:29:07.233Z,8.30
2023-04-21T06:31:33.869Z,8.17
2023-04-21T06:34:00.483Z,8.18
2023-04-21T06:36:27.588Z,7.84
2023-04-21T06:38:54.281Z,7.85
2023-04-21T06:41:22.914Z,8.07
2023-04-21T06:43:51.107Z,8.17
2023-04-21T06:46:19.210Z,8.27
2023-04-21T06:48:45.685Z,9.02
2023-04-21T06:51:12.387Z,9.44
2023-04-21T06:53:38.965Z,10.65
2023-04-21T06:56:05.764Z,10.69
2023-04-21T06:58:32.265Z,10.81
2023-04-21T07:00:58.954Z,10.84
2023-04-21T07:03:25.578Z,11.53
2023-04-21T07:05:52.232Z,12.18
2023-04-21T07:08:18.877Z,11.63
2023-04-21T07:10:45.821Z,11.37
2023-04-21T07:13:12.479Z,13.17
2023-04-21T07:15:39.210Z,13.25
2023-04-21T07:18:06.190Z,14.22
2023-04-21T07:20:32.692Z,13.46
2023-04-21T07:22:59.355Z,13.09
2023-04-21T07:25:26.315Z,14.08
2023-04-21T07:27:52.908Z,13.69
2023-04-21T07:30:19.491Z,14.33
2023-04-21T07:32:46.588Z,13.85
2023-04-21T07:35:13.768Z,13.37
2023-04-21T07:37:41.186Z,13.67
2023-04-21T07:40:08.942Z,14.51
2023-04-21T07:42:35.791Z,15.21
2023-04-21T07:45:02.864Z,14.93
2023-04-21T07:47:29.756Z,14.38
2023-04-21T07:49:56.277Z,14.45
2023-04-21T07:52:23.361Z,14.92
2023-04-21T07:54:50.565Z,15.73
2023-04-21T07:57:17.290Z,15.27
2023-04-21T07:59:43.852Z,15.36
2023-04-21T08:02:10.470Z,15.67
2023-04-21T08:04:37.363Z,16.01
2023-04-21T08:07:04.153Z,15.51
2023-04-21T08:09:30.865Z,15.91
2023-04-21T08:11:58.527Z,15.97
2023-04-21T08:14:26.986Z,15.92
2023-04-21T08:16:56.556Z,16.62
2023-04-21T08:19:23.942Z,16.46
2023-04-21T08:21:50.513Z,16.18
2023-04-21T08:24:17.394Z,16.97
2023-04-21T08:26:44.520Z,16.72
2023-04-21T08:29:11.074Z,17.29
2023-04-21T08:31:37.843Z,17.68
2023-04-21T08:34:04.422Z,16.93
2023-04-21T08:36:32.170Z,16.28
2023-04-21T08:38:58.758Z,17.10
2023-04-21T08:41:27.389Z,17.12
2023-04-21T08:43:56.237Z,17.36
2023-04-21T08:46:23.183Z,17.73
2023-04-21T08:48:50.755Z,17.39
2023-04-21T08:51:27.767Z,16.75
2023-04-21T08:53:57.494Z,17.70
2023-04-21T08:56:24.610Z,18.49
2023-04-21T08:58:51.225Z,18.74
2023-04-21T09:01:18.273Z,18.26
2023-04-21T09:03:45.225Z,15.76
2023-04-21T09:06:15.344Z,18.91
2023-04-21T09:08:43.510Z,17.44
2023-04-21T09:11:14.379Z,18.61
2023-04-21T09:13:45.227Z,18.04
2023-04-21T09:16:20.408Z,17.16
2023-04-21T09:18:47.462Z,18.90
2023-04-21T09:21:15.109Z,17.61
2023-04-21T09:23:44.615Z,18.73
2023-04-21T09:26:11.407Z,17.06
2023-04-21T09:28:41.021Z,18.15
2023-04-21T09:31:13.401Z,18.12
2023-04-21T09:33:49.734Z,17.09
2023-04-21T09:36:25.002Z,18.23
2023-04-21T09:39:05.593Z,19.27
2023-04-21T09:41:41.497Z,19.38
2023-04-21T09:44:08.269Z,19.55
2023-04-21T09:46:35.948Z,18.14
2023-04-21T09:49:03.025Z,17.50
2023-04-21T09:51:49.105Z,17.23
2023-04-21T09:56:53.145Z,18.51
2023-04-21T09:59:22.971Z,17.84
2023-04-21T10:01:50.470Z,17.16
2023-04-21T10:04:18.200Z,17.05
2023-04-21T10:06:46.132Z,17.70
2023-04-21T10:09:13.474Z,18.14
2023-04-21T10:11:41.562Z,17.20
2023-04-21T10:14:09.335Z,17.59
2023-04-21T10:16:39.666Z,16.41
2023-04-21T10:19:26.150Z,18.31
2023-04-21T10:21:55.920Z,17.92
2023-04-21T10:24:22.507Z,19.71
2023-04-21T10:26:53.275Z,19.19
2023-04-21T10:29:43.712Z,19.69
2023-04-21T10:32:31.319Z,19.41
2023-04-21T10:34:58.327Z,19.17
2023-04-21T10:37:25.086Z,20.45
2023-04-21T10:39:52.939Z,20.34
2023-04-21T10:42:21.164Z,19.01
2023-04-21T10:44:53.918Z,19.05
2023-04-21T10:47:38.871Z,19.67
2023-04-21T10:50:22.655Z,20.81
2023-04-21T10:52:54.189Z,21.52
2023-04-21T10:55:22.870Z,19.82
2023-04-21T10:57:50.250Z,21.98
2023-04-21T11:00:18.836Z,21.11
2023-04-21T11:02:53.383Z,20.73
2023-04-21T11:05:20.649Z,20.05
2023-04-21T11:07:47.146Z,18.89
2023-04-21T11:10:13.804Z,20.43
2023-04-21T11:12:41.072Z,20.29
2023-04-21T11:15:09.045Z,21.32
2023-04-21T11:17:36.837Z,20.50
2023-04-21T11:20:05.216Z,21.69
2023-04-21T11:22:31.734Z,21.95
2023-04-21T11:24:59.116Z,21.48
2023-04-21T11:27:30.361Z,20.78
2023-04-21T11:29:58.069Z,21.54
2023-04-21T11:32:25.301Z,20.09
2023-04-21T11:34:52.858Z,20.64
2023-04-21T11:37:29.702Z,21.43
2023-04-21T11:40:04.905Z,20.76
2023-04-21T11:42:31.502Z,19.94
2023-04-21T11:45:00.003Z,20.85
2023-04-21T11:47:27.908Z,21.95
2023-04-21T11:49:56.573Z,21.48
2023-04-21T11:52:23.536Z,20.01
2023-04-21T11:54:55.004Z,19.56
2023-04-21T11:57:22.854Z,19.65
2023-04-21T11:59:49.636Z,19.27
2023-04-21T12:02:27.247Z,19.40
2023-04-21T12:04:57.898Z,19.18
2023-04-21T12:07:24.680Z,20.81
2023-04-21T12:09:59.698Z,19.67
2023-04-21T12:12:26.882Z,19.88
2023-04-21T12:14:53.818Z,20.50
2023-04-21T12:17:20.898Z,21.14
2023-04-21T12:19:47.694Z,19.76
2023-04-21T12:22:22.164Z,19.69
2023-04-21T12:24:48.712Z,19.62
2023-04-21T12:27:15.555Z,19.96
2023-04-21T12:29:42.905Z,20.83
2023-04-21T12:32:10.035Z,22.00
2023-04-21T12:34:37.794Z,22.06
2023-04-21T12:37:05.463Z,20.92
2023-04-21T12:39:32.284Z,20.15
2023-04-21T12:41:59.695Z,21.61
2023-04-21T12:44:26.693Z,22.03
2023-04-21T12:46:53.445Z,22.23
2023-04-21T12:49:20.797Z,21.73
2023-04-21T12:51:47.487Z,20.67
2023-04-21T12:54:14.163Z,20.36
2023-04-21T12:56:43.130Z,20.58
2023-04-21T12:59:10.788Z,20.98
2023-04-21T13:01:41.925Z,22.15
2023-04-21T13:04:09.395Z,22.48
2023-04-21T13:06:38.252Z,21.32
2023-04-21T13:09:06.430Z,22.26
2023-04-21T13:11:33.339Z,22.51
2023-04-21T13:13:59.922Z,21.24
2023-04-21T13:16:28.622Z,22.13
2023-04-21T13:18:56.681Z,21.74
2023-04-21T13:21:23.200Z,22.10
2023-04-21T13:23:50.442Z,20.89
2023-04-21T13:26:17.957Z,20.62
2023-04-21T13:28:44.555Z,20.63
2023-04-21T13:31:11.244Z,20.79
2023-04-21T13:33:38.828Z,21.18
2023-04-21T13:36:05.682Z,20.48
2023-04-21T13:38:32.857Z,19.98
2023-04-21T13:40:59.740Z,19.93
2023-04-21T13:43:26.280Z,20.20
2023-04-21T13:45:53.177Z,19.64
2023-04-21T13:48:21.512Z,20.23
2023-04-21T13:50:48.319Z,20.52
2023-04-21T13:53:17.633Z,20.36
2023-04-21T13:55:45.336Z,20.35
2023-04-21T13:58:12.272Z,20.32
2023-04-21T14:00:39.517Z,20.08
2023-04-21T14:03:07.052Z,20.10
2023-04-21T14:05:34.384Z,19.89
2023-04-21T14:08:01.617Z,19.99
2023-04-21T14:10:28.338Z,20.14
2023-04-21T14:12:55.154Z,20.13
2023-04-21T14:15:21.903Z,20.54
2023-04-21T14:17:48.607Z,20.20
2023-04-21T14:20:15.364Z,20.58
2023-04-21T14:22:42.069Z,20.10
2023-04-21T14:25:08.759Z,20.08
2023-04-21T14:27:35.628Z,19.75
2023-04-21T14:30:02.833Z,19.76
2023-04-21T14:32:29.542Z,19.93
2023-04-21T14:34:58.824Z,19.94
2023-04-21T14:37:26.806Z,19.85
2023-04-21T14:39:53.571Z,20.02
2023-04-21T14:42:20.228Z,20.04
2023-04-21T14:44:46.722Z,20.18
2023-04-21T14:47:13.562Z,20.47
2023-04-21T14:49:40.366Z,20.26
2023-04-21T14:52:07.764Z,20.01
2023-04-21T14:54:34.806Z,19.90
2023-04-21T14:57:18.013Z,20.24
2023-04-21T14:59:47.818Z,20.44
2023-04-21T15:02:14.698Z,20.07
2023-04-21T15:04:41.569Z,20.33
2023-04-21T15:07:10.645Z,20.19
2023-04-21T15:09:37.798Z,20.05
2023-04-21T15:12:05.290Z,20.30
2023-04-21T15:14:32.146Z,20.14
2023-04-21T15:16:58.815Z,20.10
2023-04-21T15:19:25.795Z,20.15
2023-04-21T15:21:52.964Z,20.29
2023-04-21T15:24:20.162Z,20.31
2023-04-21T15:26:46.663Z,20.34
2023-04-21T15:29:13.300Z,20.24
2023-04-21T15:31:40.307Z,20.31
2023-04-21T15:34:07.007Z,20.25
2023-04-21T15:36:33.590Z,20.41
2023-04-21T15:39:01.066Z,20.66
2023-04-21T15:41:29.673Z,20.22
2023-04-21T15:43:56.187Z,20.33
2023-04-21T15:46:23.391Z,20.35
2023-04-21T15:48:50.087Z,20.27
2023-04-21T15:51:17.699Z,20.47
2023-04-21T15:53:48.039Z,20.40
2023-04-21T15:56:15.565Z,20.12
2023-04-21T15:58:42.323Z,20.17
2023-04-21T16:01:09.132Z,19.86
2023-04-21T16:03:35.842Z,19.99
2023-04-21T16:06:03.112Z,19.97
2023-04-21T16:08:30.641Z,19.88
2023-04-21T16:10:57.176Z,19.90
2023-04-21T16:13:23.762Z,19.79
2023-04-21T16:15:50.475Z,19.71
2023-04-21T16:18:17.027Z,19.75
2023-04-21T16:20:45.997Z,19.72
2023-04-21T16:23:13.170Z,19.69
2023-04-21T16:25:40.121Z,19.69
2023-04-21T16:28:07.096Z,19.60
2023-04-21T16:30:35.237Z,19.58
2023-04-21T16:33:02.125Z,19.48
2023-04-21T16:35:28.795Z,19.55
2023-04-21T16:37:55.381Z,19.46
2023-04-21T16:40:22.435Z,19.46
2023-04-21T16:42:49.195Z,19.43
2023-04-21T16:45:15.883Z,19.48
2023-04-21T16:47:42.742Z,19.43
2023-04-21T16:50:10.199Z,19.34
2023-04-21T16:52:37.004Z,19.29
2023-04-21T16:55:03.626Z,19.29
2023-04-21T16:57:31.725Z,19.19
2023-04-21T17:00:01.507Z,19.05
2023-04-21T17:02:28.623Z,18.95
2023-04-21T17:04:55.984Z,18.86
2023-04-21T17:07:22.576Z,18.76
2023-04-21T17:09:50.838Z,18.70
2023-04-21T17:12:17.647Z,18.66
2023-04-21T17:14:44.583Z,18.60
2023-04-21T17:17:11.260Z,18.52
2023-04-21T17:19:37.852Z,18.41
2023-04-21T17:22:04.468Z,18.38
2023-04-21T17:24:51.547Z,18.32
2023-04-21T17:27:19.511Z,18.27
2023-04-21T17:29:47.007Z,18.21
2023-04-21T17:32:14.106Z,18.20
2023-04-21T17:34:40.830Z,18.16
2023-04-21T17:37:07.371Z,18.11
2023-04-21T17:39:37.038Z,18.07
2023-04-21T17:42:03.765Z,18.01
2023-04-21T17:44:30.554Z,17.93
2023-04-21T17:46:58.280Z,17.89
2023-04-21T17:49:25.513Z,17.83
2023-04-21T17:51:52.136Z,17.81
2023-04-21T17:54:19.261Z,17.72
2023-04-21T17:56:46.527Z,17.68
2023-04-21T17:59:13.525Z,17.65
2023-04-21T18:01:40.271Z,17.57
2023-04-21T18:04:07.375Z,17.54
2023-04-21T18:06:34.541Z,17.49
2023-04-21T18:09:01.151Z,17.39
2023-04-21T18:11:27.923Z,17.32
2023-04-21T18:13:54.413Z,17.26
2023-04-21T18:16:21.567Z,17.14
2023-04-21T18:18:48.704Z,17.10
2023-04-21T18:21:16.203Z,17.07
2023-04-21T18:23:43.604Z,16.99
2023-04-21T18:26:10.550Z,16.96
2023-04-21T18:28:37.292Z,16.81
2023-04-21T18:31:03.959Z,16.76
2023-04-21T18:33:30.689Z,16.74
2023-04-21T18:35:57.340Z,16.69
2023-04-21T18:38:24.310Z,16.63
2023-04-21T18:40:50.940Z,16.57
2023-04-21T18:43:17.666Z,16.55
2023-04-21T18:45:44.213Z,16.55
2023-04-21T18:48:10.954Z,16.43
2023-04-21T18:50:40.515Z,16.42
2023-04-21T18:53:08.014Z,16.25
2023-04-21T18:55:36.020Z,16.22
2023-04-21T18:58:02.638Z,15.97
2023-04-21T19:00:30.309Z,15.83
2023-04-21T19:02:57.130Z,15.70
2023-04-21T19:05:23.889Z,15.73
2023-04-21T19:07:50.646Z,15.74
2023-04-21T19:10:17.431Z,15.75
2023-04-21T19:12:44.513Z,15.61
2023-04-21T19:15:12.100Z,15.61
2023-04-21T19:17:39.831Z,15.45
2023-04-21T19:20:07.035Z,15.38
2023-04-21T19:22:36.422Z,15.36
2023-04-21T19:25:03.361Z,15.36
2023-04-21T19:27:30.527Z,15.31
2023-04-21T19:29:57.722Z,15.28
2023-04-21T19:32:24.719Z,15.14
2023-04-21T19:34:51.654Z,15.00
2023-04-21T19:37:18.187Z,14.89
2023-04-21T19:39:45.084Z,14.78
2023-04-21T19:42:11.652Z,14.68
2023-04-21T19:44:39.314Z,14.68
2023-04-21T19:47:06.247Z,14.43
2023-04-21T19:49:32.809Z,14.35
2023-04-21T19:52:00.163Z,14.28
2023-04-21T19:54:26.955Z,14.25
2023-04-21T19:56:53.574Z,14.18
2023-04-21T19:59:20.457Z,14.15
2023-04-21T20:01:47.003Z,14.14
2023-04-21T20:04:13.947Z,14.03
2023-04-21T20:06:42.331Z,14.01
2023-04-21T20:09:10.466Z,13.97
2023-04-21T20:11:37.317Z,13.89
2023-04-21T20:14:04.023Z,13.81
2023-04-21T20:16:32.108Z,13.76
2023-04-21T20:18:59.094Z,13.70
2023-04-21T20:21:25.795Z,13.66
2023-04-21T20:23:52.760Z,13.65
2023-04-21T20:26:19.440Z,13.51
2023-04-21T20:28:46.119Z,13.46
2023-04-21T20:31:12.803Z,13.52
2023-04-21T20:33:39.692Z,13.50
2023-04-21T20:36:09.207Z,13.71
2023-04-21T20:38:35.817Z,13.81
2023-04-21T20:41:03.798Z,13.88
2023-04-21T20:43:33.432Z,13.75
2023-04-21T20:46:01.568Z,13.85
2023-04-21T20:48:28.195Z,13.73
2023-04-21T20:50:55.225Z,13.68
2023-04-21T20:53:22.361Z,13.72
2023-04-21T20:55:49.041Z,13.68
2023-04-21T20:58:19.478Z,13.63
2023-04-21T21:00:46.445Z,13.61
2023-04-21T21:03:13.929Z,13.59
2023-04-21T21:05:41.119Z,13.63
2023-04-21T21:08:08.217Z,13.49
2023-04-21T21:10:35.546Z,13.36
2023-04-21T21:13:02.016Z,13.14
2023-04-21T21:15:30.637Z,12.96
2023-04-21T21:17:57.703Z,13.07
2023-04-21T21:20:24.519Z,13.35
2023-04-21T21:22:50.979Z,13.19
2023-04-21T21:25:18.257Z,13.15
2023-04-21T21:27:45.175Z,13.01
2023-04-21T21:30:12.103Z,12.85
2023-04-21T21:32:39.268Z,12.83
2023-04-21T21:35:07.713Z,12.72
2023-04-21T21:37:34.462Z,12.67
2023-04-21T21:40:01.279Z,12.76
2023-04-21T21:42:27.850Z,12.76
2023-04-21T21:44:54.529Z,12.82
2023-04-21T21:47:21.576Z,12.83
2023-04-21T21:49:48.980Z,12.65
2023-04-21T21:52:15.551Z,12.82
2023-04-21T21:54:42.204Z,12.84
2023-04-21T21:57:08.728Z,12.61
2023-04-21T21:59:35.567Z,12.56
2023-04-21T22:02:02.243Z,12.64
2023-04-21T22:04:28.922Z,12.65
2023-04-21T22:06:55.706Z,12.57
2023-04-21T22:09:22.530Z,12.37
2023-04-21T22:11:49.119Z,12.37
2023-04-21T22:14:22.675Z,12.22
2023-04-21T22:16:50.879Z,12.19
2023-04-21T22:19:19.229Z,12.24
2023-04-21T22:21:46.026Z,12.24
2023-04-21T22:24:12.550Z,12.23
2023-04-21T22:26:39.118Z,12.30
2023-04-21T22:29:06.158Z,12.14
2023-04-21T22:31:33.252Z,12.05
2023-04-21T22:33:59.859Z,12.12
2023-04-21T22:36:26.544Z,12.00
2023-04-21T22:38:53.187Z,11.91
2023-04-21T22:41:20.504Z,11.90
2023-04-21T22:43:47.614Z,11.74
2023-04-21T22:46:14.805Z,11.63
2023-04-21T22:48:41.425Z,11.50
2023-04-21T22:51:08.174Z,11.52
2023-04-21T22:53:35.087Z,11.17
2023-04-21T22:56:03.151Z,11.12
2023-04-21T22:58:29.861Z,10.99
2023-04-21T23:00:56.553Z,10.97
2023-04-21T23:03:23.980Z,10.50
2023-04-21T23:05:50.617Z,10.57
2023-04-21T23:08:17.175Z,10.61
2023-04-21T23:10:43.763Z,10.70
2023-04-21T23:13:10.263Z,10.47
2023-04-21T23:15:36.800Z,10.52
2023-04-21T23:18:03.526Z,10.49
2023-04-21T23:20:30.196Z,10.22
2023-04-21T23:22:56.730Z,10.19
2023-04-21T23:25:23.604Z,10.12
2023-04-21T23:27:50.104Z,10.18
2023-04-21T23:30:16.910Z,9.99
2023-04-21T23:32:43.876Z,10.08
2023-04-21T23:35:10.865Z,10.05
2023-04-21T23:37:37.491Z,9.89
2023-04-21T23:40:09.309Z,9.79
2023-04-21T23:42:36.350Z,9.73
2023-04-21T23:45:03.729Z,9.49
2023-04-21T23:47:30.517Z,9.43
2023-04-21T23:49:57.246Z,9.41
2023-04-21T23:52:24.130Z,9.51
2023-04-21T23:54:51.104Z,9.66
2023-04-21T23:57:17.742Z,9.55
2023-04-21T23:59:44.478Z,9.58
